Time,TemperatureF,DewpointF,PressureIn,WindDirection,WindDirectionDegrees,WindSpeedMPH,WindSpeedGustMPH,Humidity,HourlyPrecipIn,Conditions,Clouds,dailyrainin,SoftwareType,DateUTC
2013-06-18 00:02:00,64.0,42.0,29.84,South,169,0.0,0.0,45,0.00,,,0.00,,2013-06-18 06:02:00,
2013-06-18 00:11:00,63.0,43.0,29.84,South,169,0.0,0.0,48,0.00,,,0.00,,2013-06-18 06:11:00,
2013-06-18 00:23:00,63.0,43.0,29.84,South,169,0.0,0.0,48,0.00,,,0.00,,2013-06-18 06:23:00,
2013-06-18 00:32:00,63.0,47.0,29.85,NNE,24,0.0,4.0,55,0.00,,,0.00,,2013-06-18 06:32:00,
2013-06-18 00:43:00,63.0,48.0,29.85,NNE,24,0.0,1.0,59,0.00,,,0.00,,2013-06-18 06:43:00,
2013-06-18 00:52:00,63.0,48.0,29.85,NNE,24,0.0,1.0,59,0.00,,,0.00,,2013-06-18 06:52:00,
2013-06-18 01:02:00,62.0,49.0,29.84,NNE,24,0.0,0.0,62,0.00,,,0.00,,2013-06-18 07:02:00,
2013-06-18 01:12:00,62.0,49.0,29.84,NNE,24,0.0,0.0,63,0.00,,,0.00,,2013-06-18 07:12:00,
2013-06-18 01:22:00,62.0,49.0,29.84,NNE,24,0.0,0.0,63,0.00,,,0.00,,2013-06-18 07:22:00,
2013-06-18 01:33:00,61.0,48.0,29.85,NNE,23,0.0,1.0,63,0.00,,,0.00,,2013-06-18 07:33:00,
2013-06-18 01:43:00,61.0,48.0,29.85,NNE,23,0.0,0.0,63,0.00,,,0.00,,2013-06-18 07:43:00,
2013-06-18 01:52:00,61.0,48.0,29.85,NNE,23,0.0,0.0,63,0.00,,,0.00,,2013-06-18 07:52:00,
2013-06-18 02:01:00,62.0,49.0,29.85,West,268,0.0,6.0,62,0.00,,,0.00,,2013-06-18 08:01:00,
2013-06-18 02:11:00,62.0,49.0,29.85,West,268,0.0,0.0,62,0.00,,,0.00,,2013-06-18 08:11:00,
2013-06-18 02:23:00,62.0,49.0,29.85,West,268,0.0,0.0,62,0.00,,,0.00,,2013-06-18 08:23:00,
2013-06-18 02:33:00,62.0,50.0,29.86,West,268,0.0,0.0,64,0.00,,,0.00,,2013-06-18 08:33:00,
2013-06-18 02:43:00,61.0,50.0,29.85,West,268,0.0,0.0,66,0.00,,,0.00,,2013-06-18 08:43:00,
2013-06-18 02:52:00,61.0,50.0,29.85,West,268,0.0,0.0,66,0.00,,,0.00,,2013-06-18 08:52:00,
2013-06-18 03:02:00,61.0,50.0,29.85,West,271,0.0,3.0,67,0.00,,,0.00,,2013-06-18 09:02:00,
2013-06-18 03:12:00,61.0,50.0,29.85,NW,311,0.0,2.0,68,0.00,,,0.00,,2013-06-18 09:12:00,
2013-06-18 03:22:00,61.0,50.0,29.85,NW,311,0.0,2.0,68,0.00,,,0.00,,2013-06-18 09:22:00,
2013-06-18 03:34:00,61.0,51.0,29.85,WNW,288,0.0,3.0,70,0.00,,,0.00,,2013-06-18 09:34:00,
2013-06-18 03:42:00,60.0,51.0,29.85,West,267,0.0,3.0,73,0.00,,,0.00,,2013-06-18 09:42:00,
2013-06-18 03:53:00,60.0,51.0,29.85,West,267,0.0,3.0,73,0.00,,,0.00,,2013-06-18 09:53:00,
2013-06-18 04:02:00,59.0,51.0,29.84,WNW,285,0.0,2.0,76,0.00,,,0.00,,2013-06-18 10:02:00,
2013-06-18 04:11:00,58.0,51.0,29.84,West,269,0.0,0.0,78,0.00,,,0.00,,2013-06-18 10:11:00,
2013-06-18 04:22:00,58.0,51.0,29.84,West,269,0.0,0.0,78,0.00,,,0.00,,2013-06-18 10:22:00,
2013-06-18 04:33:00,58.0,52.0,29.84,West,265,0.0,5.0,79,0.00,,,0.00,,2013-06-18 10:33:00,
2013-06-18 04:43:00,58.0,52.0,29.84,West,265,0.0,2.0,80,0.00,,,0.00,,2013-06-18 10:43:00,
2013-06-18 04:53:00,58.0,52.0,29.84,West,265,0.0,2.0,80,0.00,,,0.00,,2013-06-18 10:53:00,
2013-06-18 05:02:00,57.0,51.0,29.85,West,265,0.0,3.0,80,0.00,,,0.00,,2013-06-18 11:02:00,
2013-06-18 05:11:00,57.0,51.0,29.85,West,265,0.0,2.0,81,0.00,,,0.00,,2013-06-18 11:11:00,
2013-06-18 05:22:00,57.0,51.0,29.85,West,265,0.0,2.0,81,0.00,,,0.00,,2013-06-18 11:22:00,
2013-06-18 05:32:00,56.0,51.0,29.85,North,360,0.0,3.0,83,0.00,,,0.00,,2013-06-18 11:32:00,
2013-06-18 05:43:00,56.0,51.0,29.85,NW,305,0.0,3.0,83,0.00,,,0.00,,2013-06-18 11:43:00,
2013-06-18 05:52:00,56.0,51.0,29.85,NW,305,0.0,3.0,83,0.00,,,0.00,,2013-06-18 11:52:00,
2013-06-18 06:01:00,56.0,51.0,29.86,NNW,340,0.0,4.0,83,0.00,,,0.00,,2013-06-18 12:01:00,
2013-06-18 06:11:00,56.0,51.0,29.86,North,5,0.0,3.0,82,0.00,,,0.00,,2013-06-18 12:11:00,
2013-06-18 06:22:00,56.0,51.0,29.86,North,5,0.0,3.0,82,0.00,,,0.00,,2013-06-18 12:22:00,
2013-06-18 06:33:00,56.0,51.0,29.86,North,5,0.0,0.0,82,0.00,,,0.00,,2013-06-18 12:33:00,
2013-06-18 06:43:00,56.0,51.0,29.86,North,360,0.0,4.0,82,0.00,,,0.00,,2013-06-18 12:43:00,
2013-06-18 06:52:00,56.0,51.0,29.86,North,360,0.0,4.0,82,0.00,,,0.00,,2013-06-18 12:52:00,
2013-06-18 07:02:00,57.0,51.0,29.86,North,5,0.0,5.0,81,0.00,,,0.00,,2013-06-18 13:02:00,
2013-06-18 07:12:00,58.0,52.0,29.86,NNW,346,0.0,4.0,80,0.00,,,0.00,,2013-06-18 13:12:00,
2013-06-18 07:22:00,58.0,52.0,29.86,NNW,346,0.0,4.0,80,0.00,,,0.00,,2013-06-18 13:22:00,
2013-06-18 07:33:00,58.0,52.0,29.86,West,277,0.0,0.0,79,0.00,,,0.00,,2013-06-18 13:33:00,
2013-06-18 07:43:00,58.0,51.0,29.85,West,277,1.0,4.0,77,0.00,,,0.00,,2013-06-18 13:43:00,
2013-06-18 07:52:00,58.0,51.0,29.85,West,277,1.0,4.0,77,0.00,,,0.00,,2013-06-18 13:52:00,
2013-06-18 08:02:00,59.0,52.0,29.85,West,281,0.0,3.0,77,0.00,,,0.00,,2013-06-18 14:02:00,
2013-06-18 08:11:00,60.0,52.0,29.85,NNW,346,3.0,6.0,74,0.00,,,0.00,,2013-06-18 14:11:00,
2013-06-18 08:22:00,60.0,52.0,29.85,NNW,346,3.0,6.0,74,0.00,,,0.00,,2013-06-18 14:22:00,
2013-06-18 08:33:00,61.0,52.0,29.84,WSW,239,0.0,3.0,72,0.00,,,0.00,,2013-06-18 14:33:00,
2013-06-18 08:43:00,63.0,53.0,29.84,WSW,239,0.0,0.0,70,0.00,,,0.00,,2013-06-18 14:43:00,
2013-06-18 08:53:00,63.0,53.0,29.84,WSW,239,0.0,0.0,70,0.00,,,0.00,,2013-06-18 14:53:00,
2013-06-18 09:02:00,64.0,52.0,29.83,North,355,0.0,3.0,66,0.00,,,0.00,,2013-06-18 15:02:00,
2013-06-18 09:11:00,66.0,53.0,29.82,North,11,0.0,0.0,62,0.00,,,0.00,,2013-06-18 15:11:00,
2013-06-18 09:22:00,66.0,53.0,29.82,North,11,0.0,0.0,62,0.00,,,0.00,,2013-06-18 15:22:00,
2013-06-18 09:33:00,67.0,53.0,29.81,North,11,0.0,0.0,60,0.00,,,0.00,,2013-06-18 15:33:00,
2013-06-18 09:43:00,70.0,53.0,29.80,East,89,0.0,0.0,55,0.00,,,0.00,,2013-06-18 15:43:00,
2013-06-18 09:53:00,70.0,53.0,29.80,East,89,0.0,0.0,55,0.00,,,0.00,,2013-06-18 15:53:00,
2013-06-18 10:01:00,70.0,53.0,29.80,NNE,19,2.0,5.0,54,0.00,,,0.00,,2013-06-18 16:01:00,
2013-06-18 10:11:00,69.0,52.0,29.79,ENE,57,0.0,4.0,54,0.00,,,0.00,,2013-06-18 16:11:00,
2013-06-18 10:22:00,69.0,52.0,29.79,ENE,57,0.0,4.0,54,0.00,,,0.00,,2013-06-18 16:22:00,
2013-06-18 10:33:00,70.0,53.0,29.78,NNE,30,0.0,5.0,54,0.00,,,0.00,,2013-06-18 16:33:00,
2013-06-18 10:43:00,72.0,52.0,29.78,South,175,0.0,4.0,49,0.00,,,0.00,,2013-06-18 16:43:00,
2013-06-18 10:53:00,72.0,52.0,29.78,South,175,0.0,4.0,49,0.00,,,0.00,,2013-06-18 16:53:00,
2013-06-18 11:02:00,73.0,52.0,29.77,SSW,203,0.0,5.0,47,0.00,,,0.00,,2013-06-18 17:02:00,
2013-06-18 11:11:00,73.0,52.0,29.77,SSE,163,0.0,8.0,47,0.00,,,0.00,,2013-06-18 17:11:00,
2013-06-18 11:22:00,73.0,52.0,29.77,SSE,163,0.0,8.0,47,0.00,,,0.00,,2013-06-18 17:22:00,
2013-06-18 11:33:00,75.0,53.0,29.76,NNE,25,0.0,8.0,47,0.00,,,0.00,,2013-06-18 17:33:00,
2013-06-18 11:43:00,75.0,53.0,29.75,NNE,24,1.0,7.0,46,0.00,,,0.00,,2013-06-18 17:43:00,
2013-06-18 11:53:00,75.0,53.0,29.75,NNE,24,1.0,7.0,46,0.00,,,0.00,,2013-06-18 17:53:00,
2013-06-18 12:02:00,77.0,53.0,29.73,ESE,123,2.0,10.0,43,0.00,,,0.00,,2013-06-18 18:02:00,
2013-06-18 12:11:00,80.0,51.0,29.72,NNE,32,4.0,8.0,37,0.00,,,0.00,,2013-06-18 18:11:00,
2013-06-18 12:22:00,80.0,51.0,29.72,NNE,32,4.0,8.0,37,0.00,,,0.00,,2013-06-18 18:22:00,
2013-06-18 12:33:00,82.0,51.0,29.72,NNE,14,3.0,6.0,34,0.00,,,0.00,,2013-06-18 18:33:00,
2013-06-18 13:01:00,83.0,49.0,29.70,North,351,4.0,8.0,31,0.00,,,0.00,,2013-06-18 19:01:00,
2013-06-18 13:11:00,81.0,51.0,29.69,North,350,5.0,12.0,35,0.00,,,0.00,,2013-06-18 19:11:00,
2013-06-18 13:22:00,81.0,51.0,29.69,North,350,5.0,12.0,35,0.00,,,0.00,,2013-06-18 19:22:00,
2013-06-18 13:33:00,80.0,50.0,29.69,NNW,339,4.0,15.0,35,0.00,,,0.00,,2013-06-18 19:33:00,
2013-06-18 13:43:00,76.0,51.0,29.70,WNW,302,4.0,10.0,42,0.00,,,0.00,,2013-06-18 19:43:00,
2013-06-18 13:52:00,76.0,51.0,29.70,WNW,302,4.0,10.0,42,0.00,,,0.00,,2013-06-18 19:52:00,
2013-06-18 14:01:00,74.0,51.0,29.70,WNW,300,3.0,8.0,45,0.00,,,0.00,,2013-06-18 20:01:00,
2013-06-18 14:11:00,73.0,51.0,29.69,NW,315,3.0,11.0,46,0.00,,,0.00,,2013-06-18 20:11:00,
2013-06-18 14:23:00,73.0,51.0,29.69,NW,315,3.0,11.0,46,0.00,,,0.00,,2013-06-18 20:23:00,
2013-06-18 14:33:00,74.0,49.0,29.68,North,360,0.0,10.0,41,0.00,,,0.00,,2013-06-18 20:33:00,
2013-06-18 14:43:00,74.0,49.0,29.68,North,360,0.0,10.0,41,0.00,,,0.00,,2013-06-18 20:43:00,
2013-06-18 14:52:00,74.0,49.0,29.68,North,360,0.0,10.0,41,0.00,,,0.00,,2013-06-18 20:52:00,
2013-06-18 15:01:00,82.0,42.0,29.67,East,94,0.0,5.0,24,0.00,,,0.00,,2013-06-18 21:01:00,
2013-06-18 15:23:00,82.0,47.0,29.67,ENE,71,3.0,16.0,29,0.00,,,0.00,,2013-06-18 21:23:00,
2013-06-18 15:33:00,80.0,46.0,29.66,North,355,4.0,10.0,30,0.00,,,0.00,,2013-06-18 21:33:00,
2013-06-18 15:43:00,82.0,47.0,29.65,North,360,2.0,11.0,29,0.00,,,0.00,,2013-06-18 21:43:00,
2013-06-18 15:52:00,82.0,47.0,29.65,North,360,2.0,11.0,29,0.00,,,0.00,,2013-06-18 21:52:00,
2013-06-18 16:01:00,81.0,47.0,29.65,ESE,121,2.0,10.0,30,0.00,,,0.00,,2013-06-18 22:01:00,
2013-06-18 16:11:00,81.0,47.0,29.65,ESE,121,2.0,10.0,30,0.00,,,0.00,,2013-06-18 22:11:00,
2013-06-18 16:22:00,82.0,46.0,29.64,East,98,1.0,6.0,28,0.00,,,0.00,,2013-06-18 22:22:00,
2013-06-18 16:34:00,82.0,44.0,29.63,NNW,348,0.0,7.0,26,0.00,,,0.00,,2013-06-18 22:34:00,
2013-06-18 16:42:00,82.0,43.0,29.63,West,279,1.0,6.0,25,0.00,,,0.00,,2013-06-18 22:42:00,
2013-06-18 16:53:00,82.0,43.0,29.63,West,279,1.0,6.0,25,0.00,,,0.00,,2013-06-18 22:53:00,
2013-06-18 17:01:00,83.0,44.0,29.62,ESE,105,1.0,7.0,25,0.00,,,0.00,,2013-06-18 23:01:00,
2013-06-18 17:11:00,82.0,41.0,29.62,ESE,105,2.0,11.0,23,0.00,,,0.00,,2013-06-18 23:11:00,
2013-06-18 17:23:00,82.0,41.0,29.62,ESE,105,2.0,11.0,23,0.00,,,0.00,,2013-06-18 23:23:00,
2013-06-18 17:36:00,82.0,43.0,29.61,SSE,150,7.0,14.0,25,0.00,,,0.00,,2013-06-18 23:36:00,
2013-06-18 17:45:00,82.0,45.0,29.61,SE,142,4.0,12.0,27,0.00,,,0.00,,2013-06-18 23:45:00,
2013-06-18 17:53:00,82.0,45.0,29.61,SE,142,4.0,12.0,27,0.00,,,0.00,,2013-06-18 23:53:00,
2013-06-18 18:01:00,81.0,44.0,29.61,SE,137,6.0,14.0,27,0.00,,,0.00,,2013-06-19 00:01:00,
2013-06-18 18:11:00,81.0,42.0,29.60,ESE,113,4.0,11.0,25,0.00,,,0.00,,2013-06-19 00:11:00,
2013-06-18 18:22:00,81.0,42.0,29.60,ESE,113,4.0,11.0,25,0.00,,,0.00,,2013-06-19 00:22:00,
2013-06-18 18:33:00,80.0,42.0,29.60,SE,128,4.0,13.0,26,0.00,,,0.00,,2013-06-19 00:33:00,
2013-06-18 18:43:00,80.0,42.0,29.60,SE,128,4.0,13.0,26,0.00,,,0.00,,2013-06-19 00:43:00,
2013-06-18 18:53:00,78.0,48.0,29.61,East,84,3.0,15.0,35,0.00,,,0.00,,2013-06-19 00:53:00,
2013-06-18 19:01:00,76.0,46.0,29.61,SSW,197,5.0,16.0,35,0.00,,,0.00,,2013-06-19 01:01:00,
2013-06-18 19:11:00,76.0,46.0,29.61,SSW,197,5.0,16.0,35,0.00,,,0.00,,2013-06-19 01:11:00,
2013-06-18 19:22:00,76.0,46.0,29.61,SSW,197,5.0,16.0,35,0.00,,,0.00,,2013-06-19 01:22:00,
2013-06-18 19:32:00,74.0,47.0,29.60,SSW,202,4.0,12.0,38,0.00,,,0.00,,2013-06-19 01:32:00,
2013-06-18 19:42:00,74.0,47.0,29.60,SSW,202,4.0,12.0,38,0.00,,,0.00,,2013-06-19 01:42:00,
2013-06-18 19:53:00,74.0,47.0,29.60,SSW,202,4.0,12.0,38,0.00,,,0.00,,2013-06-19 01:53:00,
2013-06-18 20:01:00,74.0,47.0,29.60,SSW,202,4.0,12.0,38,0.00,,,0.00,,2013-06-19 02:01:00,
2013-06-18 20:11:00,74.0,47.0,29.60,SSW,202,4.0,12.0,38,0.00,,,0.00,,2013-06-19 02:11:00,
2013-06-18 20:21:00,74.0,47.0,29.61,SSW,211,4.0,10.0,38,0.00,,,0.00,,2013-06-19 02:21:00,
2013-06-18 20:32:00,72.0,48.0,29.63,South,186,1.0,7.0,42,0.00,,,0.00,,2013-06-19 02:32:00,
2013-06-18 20:42:00,72.0,48.0,29.63,South,186,1.0,7.0,42,0.00,,,0.00,,2013-06-19 02:42:00,
2013-06-18 20:52:00,72.0,48.0,29.63,South,186,1.0,7.0,42,0.00,,,0.00,,2013-06-19 02:52:00,
2013-06-18 21:01:00,72.0,48.0,29.63,South,186,1.0,7.0,42,0.00,,,0.00,,2013-06-19 03:01:00,
2013-06-18 21:11:00,71.0,47.0,29.62,South,178,0.0,5.0,43,0.00,,,0.00,,2013-06-19 03:11:00,
2013-06-18 21:22:00,71.0,47.0,29.63,SSE,163,3.0,7.0,42,0.00,,,0.00,,2013-06-19 03:22:00,
2013-06-18 21:33:00,71.0,47.0,29.63,SSE,163,3.0,7.0,42,0.00,,,0.00,,2013-06-19 03:33:00,
2013-06-18 21:42:00,71.0,47.0,29.64,SSW,211,3.0,10.0,42,0.00,,,0.00,,2013-06-19 03:42:00,
2013-06-18 21:52:00,71.0,47.0,29.64,SSW,211,3.0,10.0,42,0.00,,,0.00,,2013-06-19 03:52:00,
2013-06-18 22:01:00,69.0,46.0,29.63,South,177,1.0,8.0,44,0.00,,,0.00,,2013-06-19 04:01:00,
2013-06-18 22:11:00,68.0,45.0,29.65,East,97,0.0,5.0,43,0.00,,,0.00,,2013-06-19 04:11:00,
2013-06-18 22:22:00,68.0,45.0,29.65,East,97,0.0,5.0,43,0.00,,,0.00,,2013-06-19 04:22:00,
2013-06-18 22:32:00,68.0,45.0,29.65,East,97,0.0,5.0,43,0.00,,,0.00,,2013-06-19 04:32:00,
2013-06-18 22:42:00,68.0,45.0,29.65,East,97,0.0,5.0,43,0.00,,,0.00,,2013-06-19 04:42:00,
2013-06-18 22:53:00,68.0,45.0,29.65,East,97,0.0,5.0,43,0.00,,,0.00,,2013-06-19 04:53:00,
2013-06-18 23:01:00,66.0,46.0,29.64,SSE,160,2.0,12.0,49,0.00,,,0.00,,2013-06-19 05:01:00,
2013-06-18 23:11:00,66.0,46.0,29.64,SSE,160,2.0,12.0,49,0.00,,,0.00,,2013-06-19 05:11:00,
2013-06-18 23:22:00,66.0,46.0,29.64,SSE,160,2.0,12.0,49,0.00,,,0.00,,2013-06-19 05:22:00,
2013-06-18 23:32:00,66.0,48.0,29.65,SE,128,0.0,3.0,53,0.00,,,0.00,,2013-06-19 05:32:00,
2013-06-18 23:42:00,67.0,47.0,29.66,West,275,0.0,2.0,49,0.00,,,0.00,,2013-06-19 05:42:00,
2013-06-18 23:52:00,67.0,47.0,29.66,West,275,0.0,2.0,49,0.00,,,0.00,,2013-06-19 05:52:00,